sensor_id;sensor_type;location;lat;lon;timestamp;P1;durP1;ratioP1;P2;durP2;ratioP2
19828;SDS011;10075;50.924;4.396;2023-07-02T00:02:13;33.17;;;16.38;;
19828;SDS011;10075;50.924;4.396;2023-07-02T00:04:40;33.85;;;16.63;;
19828;SDS011;10075;50.924;4.396;2023-07-02T00:07:07;33.13;;;15.77;;
19828;SDS011;10075;50.924;4.396;2023-07-02T00:09:34;30.40;;;15.25;;
19828;SDS011;10075;50.924;4.396;2023-07-02T00:12:03;29.13;;;16.45;;
19828;SDS011;10075;50.924;4.396;2023-07-02T00:14:30;30.42;;;17.05;;
19828;SDS011;10075;50.924;4.396;2023-07-02T00:16:57;32.25;;;16.48;;
19828;SDS011;10075;50.924;4.396;2023-07-02T00:19:24;27.20;;;15.98;;
19828;SDS011;10075;50.924;4.396;2023-07-02T00:21:51;34.90;;;16.55;;
19828;SDS011;10075;50.924;4.396;2023-07-02T00:24:18;36.97;;;16.50;;
19828;SDS011;10075;50.924;4.396;2023-07-02T00:26:45;30.65;;;16.92;;
19828;SDS011;10075;50.924;4.396;2023-07-02T00:29:14;29.08;;;17.05;;
19828;SDS011;10075;50.924;4.396;2023-07-02T00:31:41;34.28;;;17.55;;
19828;SDS011;10075;50.924;4.396;2023-07-02T00:34:08;37.47;;;17.50;;
19828;SDS011;10075;50.924;4.396;2023-07-02T00:36:35;35.08;;;17.63;;
19828;SDS011;10075;50.924;4.396;2023-07-02T00:39:02;32.92;;;17.63;;
19828;SDS011;10075;50.924;4.396;2023-07-02T00:41:29;31.52;;;17.55;;
19828;SDS011;10075;50.924;4.396;2023-07-02T00:43:56;33.15;;;17.58;;
19828;SDS011;10075;50.924;4.396;2023-07-02T00:46:25;31.90;;;18.13;;
19828;SDS011;10075;50.924;4.396;2023-07-02T00:48:53;35.00;;;18.65;;
19828;SDS011;10075;50.924;4.396;2023-07-02T00:51:21;34.05;;;18.83;;
19828;SDS011;10075;50.924;4.396;2023-07-02T00:53:51;37.72;;;18.52;;
19828;SDS011;10075;50.924;4.396;2023-07-02T00:56:19;36.35;;;19.13;;
19828;SDS011;10075;50.924;4.396;2023-07-02T00:58:48;34.42;;;19.27;;
19828;SDS011;10075;50.924;4.396;2023-07-02T01:01:16;36.45;;;20.02;;
19828;SDS011;10075;50.924;4.396;2023-07-02T01:03:52;34.45;;;18.80;;
19828;SDS011;10075;50.924;4.396;2023-07-02T01:06:22;37.55;;;19.35;;
19828;SDS011;10075;50.924;4.396;2023-07-02T01:08:51;37.45;;;19.70;;
19828;SDS011;10075;50.924;4.396;2023-07-02T01:11:20;39.25;;;19.40;;
19828;SDS011;10075;50.924;4.396;2023-07-02T01:13:50;39.35;;;20.55;;
19828;SDS011;10075;50.924;4.396;2023-07-02T01:16:19;37.10;;;19.15;;
19828;SDS011;10075;50.924;4.396;2023-07-02T01:18:47;39.17;;;21.33;;
19828;SDS011;10075;50.924;4.396;2023-07-02T01:21:20;36.70;;;19.85;;
19828;SDS011;10075;50.924;4.396;2023-07-02T01:23:50;39.92;;;20.40;;
19828;SDS011;10075;50.924;4.396;2023-07-02T01:26:17;36.13;;;19.05;;
19828;SDS011;10075;50.924;4.396;2023-07-02T01:28:44;44.35;;;19.70;;
19828;SDS011;10075;50.924;4.396;2023-07-02T01:31:11;40.85;;;19.95;;
19828;SDS011;10075;50.924;4.396;2023-07-02T01:33:38;40.95;;;21.08;;
19828;SDS011;10075;50.924;4.396;2023-07-02T01:36:06;39.05;;;21.00;;
19828;SDS011;10075;50.924;4.396;2023-07-02T01:38:35;38.85;;;19.83;;
19828;SDS011;10075;50.924;4.396;2023-07-02T01:41:01;40.75;;;20.35;;
19828;SDS011;10075;50.924;4.396;2023-07-02T01:43:28;42.20;;;20.23;;
19828;SDS011;10075;50.924;4.396;2023-07-02T01:45:56;40.65;;;20.88;;
19828;SDS011;10075;50.924;4.396;2023-07-02T01:48:24;40.45;;;20.85;;
19828;SDS011;10075;50.924;4.396;2023-07-02T01:50:51;42.80;;;20.75;;
19828;SDS011;10075;50.924;4.396;2023-07-02T01:53:18;36.78;;;21.05;;
19828;SDS011;10075;50.924;4.396;2023-07-02T01:55:46;39.67;;;21.85;;
19828;SDS011;10075;50.924;4.396;2023-07-02T01:58:14;39.08;;;21.88;;
19828;SDS011;10075;50.924;4.396;2023-07-02T02:00:41;38.67;;;20.75;;
19828;SDS011;10075;50.924;4.396;2023-07-02T02:03:08;44.38;;;21.77;;
19828;SDS011;10075;50.924;4.396;2023-07-02T02:05:35;44.38;;;21.13;;
19828;SDS011;10075;50.924;4.396;2023-07-02T02:08:02;43.55;;;21.38;;
19828;SDS011;10075;50.924;4.396;2023-07-02T02:10:29;48.17;;;22.15;;
19828;SDS011;10075;50.924;4.396;2023-07-02T02:12:57;38.85;;;20.52;;
19828;SDS011;10075;50.924;4.396;2023-07-02T02:15:25;38.67;;;21.23;;
19828;SDS011;10075;50.924;4.396;2023-07-02T02:17:52;39.50;;;21.95;;
19828;SDS011;10075;50.924;4.396;2023-07-02T02:20:18;42.08;;;21.58;;
19828;SDS011;10075;50.924;4.396;2023-07-02T02:22:46;48.30;;;24.50;;
19828;SDS011;10075;50.924;4.396;2023-07-02T02:25:12;45.78;;;22.75;;
19828;SDS011;10075;50.924;4.396;2023-07-02T02:27:39;44.53;;;22.45;;
19828;SDS011;10075;50.924;4.396;2023-07-02T02:30:10;45.42;;;22.38;;
19828;SDS011;10075;50.924;4.396;2023-07-02T02:32:37;44.50;;;21.80;;
19828;SDS011;10075;50.924;4.396;2023-07-02T02:35:04;47.80;;;22.45;;
19828;SDS011;10075;50.924;4.396;2023-07-02T02:37:33;42.40;;;22.98;;
19828;SDS011;10075;50.924;4.396;2023-07-02T02:40:00;44.33;;;22.65;;
19828;SDS011;10075;50.924;4.396;2023-07-02T02:42:27;42.05;;;22.55;;
19828;SDS011;10075;50.924;4.396;2023-07-02T02:44:54;47.85;;;23.42;;
19828;SDS011;10075;50.924;4.396;2023-07-02T02:47:23;44.45;;;23.23;;
19828;SDS011;10075;50.924;4.396;2023-07-02T02:49:50;44.67;;;22.90;;
19828;SDS011;10075;50.924;4.396;2023-07-02T02:52:16;45.47;;;22.67;;
19828;SDS011;10075;50.924;4.396;2023-07-02T02:54:43;45.38;;;22.25;;
19828;SDS011;10075;50.924;4.396;2023-07-02T02:57:11;40.95;;;22.70;;
19828;SDS011;10075;50.924;4.396;2023-07-02T02:59:39;42.10;;;23.80;;
19828;SDS011;10075;50.924;4.396;2023-07-02T03:02:06;45.20;;;23.70;;
19828;SDS011;10075;50.924;4.396;2023-07-02T03:04:35;43.08;;;22.60;;
19828;SDS011;10075;50.924;4.396;2023-07-02T03:07:04;44.22;;;23.30;;
19828;SDS011;10075;50.924;4.396;2023-07-02T03:09:31;47.33;;;23.98;;
19828;SDS011;10075;50.924;4.396;2023-07-02T03:11:59;46.58;;;24.10;;
19828;SDS011;10075;50.924;4.396;2023-07-02T03:14:26;49.70;;;24.25;;
19828;SDS011;10075;50.924;4.396;2023-07-02T03:16:53;46.83;;;23.85;;
19828;SDS011;10075;50.924;4.396;2023-07-02T03:19:20;45.85;;;24.05;;
19828;SDS011;10075;50.924;4.396;2023-07-02T03:21:48;53.45;;;25.48;;
19828;SDS011;10075;50.924;4.396;2023-07-02T03:24:15;51.85;;;24.10;;
19828;SDS011;10075;50.924;4.396;2023-07-02T03:26:42;50.65;;;24.40;;
19828;SDS011;10075;50.924;4.396;2023-07-02T03:29:10;44.10;;;23.95;;
19828;SDS011;10075;50.924;4.396;2023-07-02T03:31:37;48.25;;;24.05;;
19828;SDS011;10075;50.924;4.396;2023-07-02T03:34:06;50.08;;;24.15;;
19828;SDS011;10075;50.924;4.396;2023-07-02T03:36:34;51.75;;;24.05;;
19828;SDS011;10075;50.924;4.396;2023-07-02T03:39:03;45.67;;;24.75;;
19828;SDS011;10075;50.924;4.396;2023-07-02T03:41:30;57.00;;;26.08;;
19828;SDS011;10075;50.924;4.396;2023-07-02T03:43:57;47.20;;;23.98;;
19828;SDS011;10075;50.924;4.396;2023-07-02T03:46:24;56.08;;;25.80;;
19828;SDS011;10075;50.924;4.396;2023-07-02T03:48:51;56.10;;;25.58;;
19828;SDS011;10075;50.924;4.396;2023-07-02T03:51:18;50.00;;;24.90;;
19828;SDS011;10075;50.924;4.396;2023-07-02T03:53:45;56.03;;;24.67;;
19828;SDS011;10075;50.924;4.396;2023-07-02T03:56:13;48.53;;;25.48;;
19828;SDS011;10075;50.924;4.396;2023-07-02T03:58:40;51.58;;;24.27;;
19828;SDS011;10075;50.924;4.396;2023-07-02T04:01:07;53.45;;;26.00;;
19828;SDS011;10075;50.924;4.396;2023-07-02T04:03:34;52.58;;;26.38;;
19828;SDS011;10075;50.924;4.396;2023-07-02T04:06:01;52.47;;;25.88;;
19828;SDS011;10075;50.924;4.396;2023-07-02T04:08:30;53.85;;;27.25;;
19828;SDS011;10075;50.924;4.396;2023-07-02T04:10:57;53.20;;;26.20;;
19828;SDS011;10075;50.924;4.396;2023-07-02T04:13:26;53.33;;;26.55;;
19828;SDS011;10075;50.924;4.396;2023-07-02T04:15:53;49.88;;;24.92;;
19828;SDS011;10075;50.924;4.396;2023-07-02T04:18:20;51.10;;;25.85;;
19828;SDS011;10075;50.924;4.396;2023-07-02T04:20:47;62.47;;;26.00;;
19828;SDS011;10075;50.924;4.396;2023-07-02T04:23:14;52.42;;;27.85;;
19828;SDS011;10075;50.924;4.396;2023-07-02T04:25:41;55.67;;;27.65;;
19828;SDS011;10075;50.924;4.396;2023-07-02T04:28:08;56.50;;;27.25;;
19828;SDS011;10075;50.924;4.396;2023-07-02T04:30:36;53.35;;;26.85;;
19828;SDS011;10075;50.924;4.396;2023-07-02T04:33:03;58.97;;;26.63;;
19828;SDS011;10075;50.924;4.396;2023-07-02T04:35:31;49.70;;;25.40;;
19828;SDS011;10075;50.924;4.396;2023-07-02T04:37:59;57.13;;;28.45;;
19828;SDS011;10075;50.924;4.396;2023-07-02T04:40:26;64.63;;;28.98;;
19828;SDS011;10075;50.924;4.396;2023-07-02T04:42:53;62.50;;;27.00;;
19828;SDS011;10075;50.924;4.396;2023-07-02T04:45:23;52.33;;;27.15;;
19828;SDS011;10075;50.924;4.396;2023-07-02T04:47:52;53.22;;;27.25;;
19828;SDS011;10075;50.924;4.396;2023-07-02T04:50:19;64.40;;;29.80;;
19828;SDS011;10075;50.924;4.396;2023-07-02T04:52:46;51.58;;;28.67;;
19828;SDS011;10075;50.924;4.396;2023-07-02T04:55:13;57.75;;;27.73;;
19828;SDS011;10075;50.924;4.396;2023-07-02T04:57:40;64.25;;;30.73;;
19828;SDS011;10075;50.924;4.396;2023-07-02T05:00:09;58.70;;;28.10;;
19828;SDS011;10075;50.924;4.396;2023-07-02T05:02:37;64.38;;;28.90;;
19828;SDS011;10075;50.924;4.396;2023-07-02T05:05:07;62.65;;;28.95;;
19828;SDS011;10075;50.924;4.396;2023-07-02T05:07:34;63.58;;;29.45;;
19828;SDS011;10075;50.924;4.396;2023-07-02T05:10:01;61.63;;;30.17;;
19828;SDS011;10075;50.924;4.396;2023-07-02T05:12:28;66.47;;;30.70;;
19828;SDS011;10075;50.924;4.396;2023-07-02T05:14:55;57.22;;;28.73;;
19828;SDS011;10075;50.924;4.396;2023-07-02T05:17:22;58.28;;;29.08;;
19828;SDS011;10075;50.924;4.396;2023-07-02T05:19:49;61.53;;;29.00;;
19828;SDS011;10075;50.924;4.396;2023-07-02T05:22:18;61.75;;;28.60;;
19828;SDS011;10075;50.924;4.396;2023-07-02T05:24:45;60.90;;;29.20;;
19828;SDS011;10075;50.924;4.396;2023-07-02T05:27:12;62.33;;;30.15;;
19828;SDS011;10075;50.924;4.396;2023-07-02T05:29:39;56.13;;;29.00;;
19828;SDS011;10075;50.924;4.396;2023-07-02T05:32:06;58.72;;;28.40;;
19828;SDS011;10075;50.924;4.396;2023-07-02T05:34:33;60.00;;;28.30;;
19828;SDS011;10075;50.924;4.396;2023-07-02T05:37:00;55.70;;;28.83;;
19828;SDS011;10075;50.924;4.396;2023-07-02T05:39:29;62.72;;;29.20;;
19828;SDS011;10075;50.924;4.396;2023-07-02T05:41:56;63.55;;;29.27;;
19828;SDS011;10075;50.924;4.396;2023-07-02T05:44:23;53.35;;;28.75;;
19828;SDS011;10075;50.924;4.396;2023-07-02T05:46:50;50.22;;;28.50;;
19828;SDS011;10075;50.924;4.396;2023-07-02T05:49:17;54.95;;;29.20;;
19828;SDS011;10075;50.924;4.396;2023-07-02T05:51:43;58.13;;;27.50;;
19828;SDS011;10075;50.924;4.396;2023-07-02T05:54:10;61.30;;;28.15;;
19828;SDS011;10075;50.924;4.396;2023-07-02T05:56:39;54.83;;;27.85;;
19828;SDS011;10075;50.924;4.396;2023-07-02T05:59:06;54.33;;;27.77;;
19828;SDS011;10075;50.924;4.396;2023-07-02T06:01:33;61.40;;;28.10;;
19828;SDS011;10075;50.924;4.396;2023-07-02T06:03:59;54.03;;;27.33;;
19828;SDS011;10075;50.924;4.396;2023-07-02T06:06:26;52.08;;;28.30;;
19828;SDS011;10075;50.924;4.396;2023-07-02T06:08:53;53.97;;;27.67;;
19828;SDS011;10075;50.924;4.396;2023-07-02T06:11:20;54.97;;;28.08;;
19828;SDS011;10075;50.924;4.396;2023-07-02T06:13:49;53.53;;;26.15;;
19828;SDS011;10075;50.924;4.396;2023-07-02T06:16:16;50.17;;;26.20;;
19828;SDS011;10075;50.924;4.396;2023-07-02T06:18:43;57.35;;;27.38;;
19828;SDS011;10075;50.924;4.396;2023-07-02T06:21:10;54.22;;;25.58;;
19828;SDS011;10075;50.924;4.396;2023-07-02T06:23:40;54.42;;;27.75;;
19828;SDS011;10075;50.924;4.396;2023-07-02T06:26:08;53.50;;;26.33;;
19828;SDS011;10075;50.924;4.396;2023-07-02T06:28:35;46.20;;;25.30;;
19828;SDS011;10075;50.924;4.396;2023-07-02T06:31:03;54.65;;;26.73;;
19828;SDS011;10075;50.924;4.396;2023-07-02T06:33:30;51.58;;;26.63;;
19828;SDS011;10075;50.924;4.396;2023-07-02T06:35:57;46.88;;;24.27;;
19828;SDS011;10075;50.924;4.396;2023-07-02T06:38:24;46.85;;;23.38;;
19828;SDS011;10075;50.924;4.396;2023-07-02T06:40:51;46.40;;;21.17;;
19828;SDS011;10075;50.924;4.396;2023-07-02T06:43:18;42.78;;;21.70;;
19828;SDS011;10075;50.924;4.396;2023-07-02T06:45:45;48.80;;;22.27;;
19828;SDS011;10075;50.924;4.396;2023-07-02T06:48:13;35.85;;;20.20;;
19828;SDS011;10075;50.924;4.396;2023-07-02T06:50:43;37.70;;;19.40;;
19828;SDS011;10075;50.924;4.396;2023-07-02T06:53:10;37.67;;;18.17;;
19828;SDS011;10075;50.924;4.396;2023-07-02T06:55:37;37.47;;;18.33;;
19828;SDS011;10075;50.924;4.396;2023-07-02T06:58:04;30.30;;;15.98;;
19828;SDS011;10075;50.924;4.396;2023-07-02T07:00:32;33.70;;;16.10;;
19828;SDS011;10075;50.924;4.396;2023-07-02T07:03:00;31.65;;;15.95;;
19828;SDS011;10075;50.924;4.396;2023-07-02T07:05:29;31.02;;;14.30;;
19828;SDS011;10075;50.924;4.396;2023-07-02T07:07:56;26.85;;;12.80;;
19828;SDS011;10075;50.924;4.396;2023-07-02T07:10:23;27.25;;;13.57;;
19828;SDS011;10075;50.924;4.396;2023-07-02T07:12:50;31.50;;;13.52;;
19828;SDS011;10075;50.924;4.396;2023-07-02T07:15:17;28.52;;;13.45;;
19828;SDS011;10075;50.924;4.396;2023-07-02T07:17:44;25.95;;;12.18;;
19828;SDS011;10075;50.924;4.396;2023-07-02T07:20:11;24.15;;;11.23;;
19828;SDS011;10075;50.924;4.396;2023-07-02T07:22:40;27.17;;;11.60;;
19828;SDS011;10075;50.924;4.396;2023-07-02T07:25:08;24.63;;;11.20;;
19828;SDS011;10075;50.924;4.396;2023-07-02T07:27:35;24.73;;;11.75;;
19828;SDS011;10075;50.924;4.396;2023-07-02T07:30:02;20.48;;;10.13;;
19828;SDS011;10075;50.924;4.396;2023-07-02T07:32:29;20.38;;;10.05;;
19828;SDS011;10075;50.924;4.396;2023-07-02T07:34:56;18.45;;;9.73;;
19828;SDS011;10075;50.924;4.396;2023-07-02T07:37:23;21.30;;;9.32;;
19828;SDS011;10075;50.924;4.396;2023-07-02T07:39:52;19.95;;;9.85;;
19828;SDS011;10075;50.924;4.396;2023-07-02T07:42:19;21.80;;;9.98;;
19828;SDS011;10075;50.924;4.396;2023-07-02T07:44:46;26.98;;;10.50;;
19828;SDS011;10075;50.924;4.396;2023-07-02T07:47:13;20.65;;;9.75;;
19828;SDS011;10075;50.924;4.396;2023-07-02T07:49:40;22.35;;;9.18;;
19828;SDS011;10075;50.924;4.396;2023-07-02T07:52:08;20.45;;;9.25;;
19828;SDS011;10075;50.924;4.396;2023-07-02T07:54:35;17.83;;;8.75;;
19828;SDS011;10075;50.924;4.396;2023-07-02T07:57:03;19.55;;;9.43;;
19828;SDS011;10075;50.924;4.396;2023-07-02T07:59:31;19.92;;;8.65;;
19828;SDS011;10075;50.924;4.396;2023-07-02T08:01:58;22.58;;;8.82;;
19828;SDS011;10075;50.924;4.396;2023-07-02T08:04:25;19.60;;;8.38;;
19828;SDS011;10075;50.924;4.396;2023-07-02T08:06:52;19.63;;;8.80;;
19828;SDS011;10075;50.924;4.396;2023-07-02T08:09:20;18.52;;;8.10;;
19828;SDS011;10075;50.924;4.396;2023-07-02T08:11:47;19.08;;;8.45;;
19828;SDS011;10075;50.924;4.396;2023-07-02T08:14:15;18.77;;;7.75;;
19828;SDS011;10075;50.924;4.396;2023-07-02T08:16:43;16.88;;;7.63;;
19828;SDS011;10075;50.924;4.396;2023-07-02T08:19:11;16.30;;;7.95;;
19828;SDS011;10075;50.924;4.396;2023-07-02T08:21:38;17.55;;;7.65;;
19828;SDS011;10075;50.924;4.396;2023-07-02T08:24:05;19.92;;;8.32;;
19828;SDS011;10075;50.924;4.396;2023-07-02T08:26:32;17.23;;;8.38;;
19828;SDS011;10075;50.924;4.396;2023-07-02T08:28:59;16.88;;;8.63;;
19828;SDS011;10075;50.924;4.396;2023-07-02T08:31:28;21.77;;;9.38;;
19828;SDS011;10075;50.924;4.396;2023-07-02T08:33:55;17.83;;;8.57;;
19828;SDS011;10075;50.924;4.396;2023-07-02T08:36:22;21.98;;;8.60;;
19828;SDS011;10075;50.924;4.396;2023-07-02T08:38:49;17.75;;;9.27;;
19828;SDS011;10075;50.924;4.396;2023-07-02T08:41:16;18.48;;;9.23;;
19828;SDS011;10075;50.924;4.396;2023-07-02T08:43:43;23.98;;;10.55;;
19828;SDS011;10075;50.924;4.396;2023-07-02T08:46:10;26.02;;;10.90;;
19828;SDS011;10075;50.924;4.396;2023-07-02T08:48:39;19.15;;;10.30;;
19828;SDS011;10075;50.924;4.396;2023-07-02T08:51:07;21.95;;;10.50;;
19828;SDS011;10075;50.924;4.396;2023-07-02T08:53:34;20.83;;;10.23;;
19828;SDS011;10075;50.924;4.396;2023-07-02T08:56:02;23.55;;;11.10;;
19828;SDS011;10075;50.924;4.396;2023-07-02T08:58:29;24.35;;;11.70;;
19828;SDS011;10075;50.924;4.396;2023-07-02T09:01:06;22.63;;;11.40;;
19828;SDS011;10075;50.924;4.396;2023-07-02T09:03:35;21.38;;;11.07;;
19828;SDS011;10075;50.924;4.396;2023-07-02T09:06:04;26.25;;;12.15;;
19828;SDS011;10075;50.924;4.396;2023-07-02T09:08:32;21.73;;;11.25;;
19828;SDS011;10075;50.924;4.396;2023-07-02T09:11:06;25.10;;;11.43;;
19828;SDS011;10075;50.924;4.396;2023-07-02T09:13:46;23.98;;;11.30;;
19828;SDS011;10075;50.924;4.396;2023-07-02T09:16:24;29.42;;;10.48;;
19828;SDS011;10075;50.924;4.396;2023-07-02T09:18:58;26.00;;;10.98;;
19828;SDS011;10075;50.924;4.396;2023-07-02T09:21:37;21.90;;;10.77;;
19828;SDS011;10075;50.924;4.396;2023-07-02T09:24:15;22.48;;;11.43;;
19828;SDS011;10075;50.924;4.396;2023-07-02T09:26:42;28.80;;;12.05;;
19828;SDS011;10075;50.924;4.396;2023-07-02T09:29:11;29.40;;;12.30;;
19828;SDS011;10075;50.924;4.396;2023-07-02T09:31:44;28.90;;;11.73;;
19828;SDS011;10075;50.924;4.396;2023-07-02T09:34:12;25.17;;;12.43;;
19828;SDS011;10075;50.924;4.396;2023-07-02T09:36:41;22.95;;;11.80;;
19828;SDS011;10075;50.924;4.396;2023-07-02T09:39:11;22.80;;;12.68;;
19828;SDS011;10075;50.924;4.396;2023-07-02T09:41:40;27.33;;;12.73;;
19828;SDS011;10075;50.924;4.396;2023-07-02T09:44:08;26.45;;;11.50;;
19828;SDS011;10075;50.924;4.396;2023-07-02T09:46:37;26.98;;;12.32;;
19828;SDS011;10075;50.924;4.396;2023-07-02T09:49:08;24.27;;;11.30;;
19828;SDS011;10075;50.924;4.396;2023-07-02T09:51:38;24.38;;;11.38;;
19828;SDS011;10075;50.924;4.396;2023-07-02T09:54:07;21.80;;;11.48;;
19828;SDS011;10075;50.924;4.396;2023-07-02T09:56:34;23.05;;;11.30;;
19828;SDS011;10075;50.924;4.396;2023-07-02T09:59:01;25.83;;;11.50;;
19828;SDS011;10075;50.924;4.396;2023-07-02T10:01:28;26.67;;;12.27;;
19828;SDS011;10075;50.924;4.396;2023-07-02T10:03:55;22.75;;;11.48;;
19828;SDS011;10075;50.924;4.396;2023-07-02T10:06:22;25.20;;;11.77;;
19828;SDS011;10075;50.924;4.396;2023-07-02T10:08:52;25.45;;;12.07;;
19828;SDS011;10075;50.924;4.396;2023-07-02T10:11:27;23.60;;;10.80;;
19828;SDS011;10075;50.924;4.396;2023-07-02T10:14:00;23.70;;;11.32;;
19828;SDS011;10075;50.924;4.396;2023-07-02T10:16:27;22.73;;;11.60;;
19828;SDS011;10075;50.924;4.396;2023-07-02T10:19:07;23.42;;;10.73;;
19828;SDS011;10075;50.924;4.396;2023-07-02T10:21:35;25.25;;;11.85;;
19828;SDS011;10075;50.924;4.396;2023-07-02T10:24:08;23.52;;;11.60;;
19828;SDS011;10075;50.924;4.396;2023-07-02T10:26:38;23.23;;;11.55;;
19828;SDS011;10075;50.924;4.396;2023-07-02T10:29:06;23.02;;;11.13;;
19828;SDS011;10075;50.924;4.396;2023-07-02T10:31:33;24.67;;;11.43;;
19828;SDS011;10075;50.924;4.396;2023-07-02T10:34:00;23.45;;;11.52;;
19828;SDS011;10075;50.924;4.396;2023-07-02T10:36:27;25.67;;;11.05;;
19828;SDS011;10075;50.924;4.396;2023-07-02T10:39:00;20.67;;;10.52;;
19828;SDS011;10075;50.924;4.396;2023-07-02T10:41:29;20.38;;;10.00;;
19828;SDS011;10075;50.924;4.396;2023-07-02T10:44:06;19.25;;;9.82;;
19828;SDS011;10075;50.924;4.396;2023-07-02T10:46:34;21.10;;;10.02;;
19828;SDS011;10075;50.924;4.396;2023-07-02T10:49:01;22.77;;;11.07;;
19828;SDS011;10075;50.924;4.396;2023-07-02T10:51:28;26.45;;;10.52;;
19828;SDS011;10075;50.924;4.396;2023-07-02T10:53:58;21.23;;;10.95;;
19828;SDS011;10075;50.924;4.396;2023-07-02T10:56:26;22.33;;;11.15;;
19828;SDS011;10075;50.924;4.396;2023-07-02T10:58:53;23.83;;;10.60;;
19828;SDS011;10075;50.924;4.396;2023-07-02T11:01:25;26.20;;;11.27;;
19828;SDS011;10075;50.924;4.396;2023-07-02T11:03:56;22.77;;;11.35;;
19828;SDS011;10075;50.924;4.396;2023-07-02T11:06:24;16.75;;;9.50;;
19828;SDS011;10075;50.924;4.396;2023-07-02T11:08:52;22.35;;;10.45;;
19828;SDS011;10075;50.924;4.396;2023-07-02T11:11:19;22.92;;;11.88;;
19828;SDS011;10075;50.924;4.396;2023-07-02T11:13:47;20.60;;;10.43;;
19828;SDS011;10075;50.924;4.396;2023-07-02T11:16:22;24.25;;;11.60;;
19828;SDS011;10075;50.924;4.396;2023-07-02T11:18:52;24.55;;;11.95;;
19828;SDS011;10075;50.924;4.396;2023-07-02T11:21:20;20.70;;;11.32;;
19828;SDS011;10075;50.924;4.396;2023-07-02T11:23:47;20.83;;;11.55;;
19828;SDS011;10075;50.924;4.396;2023-07-02T11:26:14;22.67;;;11.68;;
19828;SDS011;10075;50.924;4.396;2023-07-02T11:28:48;23.80;;;11.35;;
19828;SDS011;10075;50.924;4.396;2023-07-02T11:31:25;24.83;;;10.77;;
19828;SDS011;10075;50.924;4.396;2023-07-02T11:33:53;21.52;;;10.95;;
19828;SDS011;10075;50.924;4.396;2023-07-02T11:36:20;24.00;;;10.15;;
19828;SDS011;10075;50.924;4.396;2023-07-02T11:38:49;21.30;;;11.00;;
19828;SDS011;10075;50.924;4.396;2023-07-02T11:41:18;17.50;;;10.35;;
19828;SDS011;10075;50.924;4.396;2023-07-02T11:43:46;20.70;;;10.52;;
19828;SDS011;10075;50.924;4.396;2023-07-02T11:46:13;20.80;;;10.32;;
19828;SDS011;10075;50.924;4.396;2023-07-02T11:48:42;22.92;;;11.50;;
19828;SDS011;10075;50.924;4.396;2023-07-02T11:51:09;22.90;;;10.63;;
19828;SDS011;10075;50.924;4.396;2023-07-02T11:53:36;19.63;;;10.55;;
19828;SDS011;10075;50.924;4.396;2023-07-02T11:56:04;21.20;;;10.18;;
19828;SDS011;10075;50.924;4.396;2023-07-02T11:58:31;21.95;;;11.70;;
19828;SDS011;10075;50.924;4.396;2023-07-02T12:00:58;18.63;;;10.43;;
19828;SDS011;10075;50.924;4.396;2023-07-02T12:03:25;18.20;;;9.85;;
19828;SDS011;10075;50.924;4.396;2023-07-02T12:05:53;23.05;;;10.93;;
19828;SDS011;10075;50.924;4.396;2023-07-02T12:08:20;20.63;;;10.63;;
19828;SDS011;10075;50.924;4.396;2023-07-02T12:10:47;20.73;;;10.85;;
19828;SDS011;10075;50.924;4.396;2023-07-02T12:13:14;22.83;;;9.98;;
19828;SDS011;10075;50.924;4.396;2023-07-02T12:15:41;18.52;;;10.13;;
19828;SDS011;10075;50.924;4.396;2023-07-02T12:18:08;21.38;;;9.85;;
19828;SDS011;10075;50.924;4.396;2023-07-02T12:20:36;20.20;;;10.20;;
19828;SDS011;10075;50.924;4.396;2023-07-02T12:23:04;20.80;;;10.32;;
19828;SDS011;10075;50.924;4.396;2023-07-02T12:25:31;22.48;;;10.70;;
19828;SDS011;10075;50.924;4.396;2023-07-02T12:27:58;20.73;;;10.05;;
19828;SDS011;10075;50.924;4.396;2023-07-02T12:30:25;20.85;;;10.07;;
19828;SDS011;10075;50.924;4.396;2023-07-02T12:32:52;18.17;;;9.68;;
19828;SDS011;10075;50.924;4.396;2023-07-02T12:35:19;19.17;;;9.93;;
19828;SDS011;10075;50.924;4.396;2023-07-02T12:37:47;20.02;;;8.95;;
19828;SDS011;10075;50.924;4.396;2023-07-02T12:40:18;17.88;;;8.70;;
19828;SDS011;10075;50.924;4.396;2023-07-02T12:42:46;18.67;;;9.23;;
19828;SDS011;10075;50.924;4.396;2023-07-02T12:45:13;22.08;;;8.98;;
19828;SDS011;10075;50.924;4.396;2023-07-02T12:47:41;18.60;;;8.40;;
19828;SDS011;10075;50.924;4.396;2023-07-02T12:50:08;20.17;;;9.48;;
19828;SDS011;10075;50.924;4.396;2023-07-02T12:52:36;19.17;;;9.50;;
19828;SDS011;10075;50.924;4.396;2023-07-02T12:55:04;21.13;;;9.95;;
19828;SDS011;10075;50.924;4.396;2023-07-02T12:57:33;17.35;;;8.50;;
19828;SDS011;10075;50.924;4.396;2023-07-02T13:00:01;19.70;;;10.18;;
19828;SDS011;10075;50.924;4.396;2023-07-02T13:02:30;18.95;;;8.93;;
19828;SDS011;10075;50.924;4.396;2023-07-02T13:04:58;14.50;;;8.30;;
19828;SDS011;10075;50.924;4.396;2023-07-02T13:07:24;15.40;;;8.00;;
19828;SDS011;10075;50.924;4.396;2023-07-02T13:09:53;17.42;;;8.48;;
19828;SDS011;10075;50.924;4.396;2023-07-02T13:12:20;16.83;;;7.95;;
19828;SDS011;10075;50.924;4.396;2023-07-02T13:14:48;18.05;;;8.35;;
19828;SDS011;10075;50.924;4.396;2023-07-02T13:17:15;15.38;;;8.07;;
19828;SDS011;10075;50.924;4.396;2023-07-02T13:19:42;17.05;;;8.90;;
19828;SDS011;10075;50.924;4.396;2023-07-02T13:22:09;18.55;;;7.75;;
19828;SDS011;10075;50.924;4.396;2023-07-02T13:24:36;18.02;;;8.27;;
19828;SDS011;10075;50.924;4.396;2023-07-02T13:27:07;18.40;;;9.05;;
19828;SDS011;10075;50.924;4.396;2023-07-02T13:29:37;17.70;;;8.23;;
19828;SDS011;10075;50.924;4.396;2023-07-02T13:32:06;16.42;;;8.15;;
19828;SDS011;10075;50.924;4.396;2023-07-02T13:34:34;18.10;;;8.55;;
19828;SDS011;10075;50.924;4.396;2023-07-02T13:37:01;17.13;;;8.45;;
19828;SDS011;10075;50.924;4.396;2023-07-02T13:39:28;18.67;;;8.70;;
19828;SDS011;10075;50.924;4.396;2023-07-02T13:41:55;14.32;;;8.27;;
19828;SDS011;10075;50.924;4.396;2023-07-02T13:44:22;18.25;;;8.57;;
19828;SDS011;10075;50.924;4.396;2023-07-02T13:46:49;17.20;;;8.40;;
19828;SDS011;10075;50.924;4.396;2023-07-02T13:49:17;15.15;;;8.25;;
19828;SDS011;10075;50.924;4.396;2023-07-02T13:51:44;16.40;;;8.98;;
19828;SDS011;10075;50.924;4.396;2023-07-02T13:54:11;18.67;;;8.95;;
19828;SDS011;10075;50.924;4.396;2023-07-02T13:56:39;17.65;;;8.43;;
19828;SDS011;10075;50.924;4.396;2023-07-02T13:59:07;16.20;;;8.32;;
19828;SDS011;10075;50.924;4.396;2023-07-02T14:01:34;17.52;;;8.27;;
19828;SDS011;10075;50.924;4.396;2023-07-02T14:04:02;20.45;;;7.90;;
19828;SDS011;10075;50.924;4.396;2023-07-02T14:06:29;17.48;;;8.38;;
19828;SDS011;10075;50.924;4.396;2023-07-02T14:08:56;16.98;;;8.05;;
19828;SDS011;10075;50.924;4.396;2023-07-02T14:11:24;17.35;;;8.45;;
19828;SDS011;10075;50.924;4.396;2023-07-02T14:13:52;19.67;;;8.68;;
19828;SDS011;10075;50.924;4.396;2023-07-02T14:16:21;14.52;;;7.80;;
19828;SDS011;10075;50.924;4.396;2023-07-02T14:18:49;15.10;;;7.07;;
19828;SDS011;10075;50.924;4.396;2023-07-02T14:21:16;15.98;;;8.02;;
19828;SDS011;10075;50.924;4.396;2023-07-02T14:23:43;13.32;;;7.35;;
19828;SDS011;10075;50.924;4.396;2023-07-02T14:26:10;14.20;;;7.30;;
19828;SDS011;10075;50.924;4.396;2023-07-02T14:28:38;17.58;;;8.30;;